sensor_id;sensor_type;location;lat;lon;timestamp;pressure;altitude;pressure_sealevel;temperature;humidity
72640;BME280;60683;51.730;8.762;2024-01-30T00:00:28;101581.25;;;4.35;100.00
72640;BME280;60683;51.730;8.762;2024-01-30T00:03:33;101576.56;;;4.29;100.00
72640;BME280;60683;51.730;8.762;2024-01-30T00:06:18;101578.78;;;4.08;100.00
72640;BME280;60683;51.730;8.762;2024-01-30T00:09:04;101585.25;;;4.05;100.00
72640;BME280;60683;51.730;8.762;2024-01-30T00:11:50;101586.31;;;3.94;100.00
72640;BME280;60683;51.730;8.762;2024-01-30T00:14:35;101584.56;;;4.03;100.00
72640;BME280;60683;51.730;8.762;2024-01-30T00:17:21;101580.78;;;3.88;100.00
72640;BME280;60683;51.730;8.762;2024-01-30T00:20:10;101585.06;;;3.81;100.00
72640;BME280;60683;51.730;8.762;2024-01-30T00:22:55;101586.19;;;3.78;100.00
72640;BME280;60683;51.730;8.762;2024-01-30T00:25:40;101580.88;;;3.78;100.00
72640;BME280;60683;51.730;8.762;2024-01-30T00:28:25;101574.81;;;3.68;100.00
72640;BME280;60683;51.730;8.762;2024-01-30T00:31:11;101585.84;;;3.55;100.00
72640;BME280;60683;51.730;8.762;2024-01-30T00:33:57;101584.91;;;3.64;100.00
72640;BME280;60683;51.730;8.762;2024-01-30T00:36:43;101580.75;;;3.62;100.00
72640;BME280;60683;51.730;8.762;2024-01-30T00:39:28;101586.91;;;3.62;100.00
72640;BME280;60683;51.730;8.762;2024-01-30T00:42:13;101584.25;;;3.62;100.00
72640;BME280;60683;51.730;8.762;2024-01-30T00:44:59;101593.72;;;3.65;100.00
72640;BME280;60683;51.730;8.762;2024-01-30T00:47:44;101590.41;;;3.63;100.00
72640;BME280;60683;51.730;8.762;2024-01-30T00:50:31;101582.63;;;3.87;100.00
72640;BME280;60683;51.730;8.762;2024-01-30T00:53:16;101587.78;;;3.89;100.00
72640;BME280;60683;51.730;8.762;2024-01-30T00:56:02;101586.41;;;3.85;100.00
72640;BME280;60683;51.730;8.762;2024-01-30T00:58:48;101584.66;;;3.76;100.00
72640;BME280;60683;51.730;8.762;2024-01-30T01:01:33;101586.66;;;3.74;100.00
72640;BME280;60683;51.730;8.762;2024-01-30T01:04:19;101585.19;;;3.79;100.00
72640;BME280;60683;51.730;8.762;2024-01-30T01:07:06;101587.09;;;3.87;100.00
72640;BME280;60683;51.730;8.762;2024-01-30T01:09:51;101585.34;;;3.95;100.00
72640;BME280;60683;51.730;8.762;2024-01-30T01:12:37;101586.09;;;4.06;100.00
72640;BME280;60683;51.730;8.762;2024-01-30T01:15:22;101581.44;;;4.08;100.00
72640;BME280;60683;51.730;8.762;2024-01-30T01:18:07;101583.03;;;4.26;100.00
72640;BME280;60683;51.730;8.762;2024-01-30T01:20:52;101585.69;;;4.26;100.00
72640;BME280;60683;51.730;8.762;2024-01-30T01:23:39;101584.03;;;4.25;100.00
72640;BME280;60683;51.730;8.762;2024-01-30T01:26:24;101585.34;;;4.21;100.00
72640;BME280;60683;51.730;8.762;2024-01-30T01:29:09;101578.34;;;4.20;100.00
72640;BME280;60683;51.730;8.762;2024-01-30T01:31:56;101577.16;;;4.15;100.00
72640;BME280;60683;51.730;8.762;2024-01-30T01:34:41;101573.63;;;4.06;100.00
72640;BME280;60683;51.730;8.762;2024-01-30T01:37:27;101566.53;;;4.15;100.00
72640;BME280;60683;51.730;8.762;2024-01-30T01:40:14;101576.03;;;4.25;100.00
72640;BME280;60683;51.730;8.762;2024-01-30T01:43:03;101581.00;;;4.20;100.00
72640;BME280;60683;51.730;8.762;2024-01-30T01:45:49;101576.19;;;4.24;100.00
72640;BME280;60683;51.730;8.762;2024-01-30T01:48:34;101580.38;;;4.26;100.00
72640;BME280;60683;51.730;8.762;2024-01-30T01:51:21;101577.03;;;4.24;100.00
72640;BME280;60683;51.730;8.762;2024-01-30T01:54:08;101572.56;;;4.25;100.00
72640;BME280;60683;51.730;8.762;2024-01-30T01:56:55;101572.75;;;4.31;100.00
72640;BME280;60683;51.730;8.762;2024-01-30T01:59:41;101581.38;;;4.25;100.00
72640;BME280;60683;51.730;8.762;2024-01-30T02:02:26;101567.66;;;4.12;100.00
72640;BME280;60683;51.730;8.762;2024-01-30T02:05:14;101572.69;;;4.15;100.00
72640;BME280;60683;51.730;8.762;2024-01-30T02:08:00;101569.53;;;3.94;100.00
72640;BME280;60683;51.730;8.762;2024-01-30T02:10:45;101571.88;;;3.97;100.00
72640;BME280;60683;51.730;8.762;2024-01-30T02:13:32;101568.13;;;4.08;100.00
72640;BME280;60683;51.730;8.762;2024-01-30T02:16:18;101561.00;;;4.08;100.00
72640;BME280;60683;51.730;8.762;2024-01-30T02:19:03;101559.09;;;4.01;100.00
72640;BME280;60683;51.730;8.762;2024-01-30T02:21:51;101554.31;;;4.04;100.00
72640;BME280;60683;51.730;8.762;2024-01-30T02:24:36;101554.63;;;4.01;100.00
72640;BME280;60683;51.730;8.762;2024-01-30T02:27:21;101544.19;;;4.08;100.00
72640;BME280;60683;51.730;8.762;2024-01-30T02:30:07;101548.72;;;4.15;100.00
72640;BME280;60683;51.730;8.762;2024-01-30T02:32:52;101549.59;;;4.24;100.00
72640;BME280;60683;51.730;8.762;2024-01-30T02:35:38;101544.41;;;4.22;100.00
72640;BME280;60683;51.730;8.762;2024-01-30T02:38:24;101541.44;;;4.25;100.00
72640;BME280;60683;51.730;8.762;2024-01-30T02:41:11;101540.50;;;4.35;100.00
72640;BME280;60683;51.730;8.762;2024-01-30T02:43:56;101539.97;;;4.31;100.00
72640;BME280;60683;51.730;8.762;2024-01-30T02:46:41;101536.75;;;4.19;100.00
72640;BME280;60683;51.730;8.762;2024-01-30T02:49:26;101539.91;;;4.15;100.00
72640;BME280;60683;51.730;8.762;2024-01-30T02:52:12;101530.81;;;3.99;100.00
72640;BME280;60683;51.730;8.762;2024-01-30T02:54:59;101533.44;;;3.91;100.00
72640;BME280;60683;51.730;8.762;2024-01-30T02:57:44;101520.97;;;3.92;100.00
72640;BME280;60683;51.730;8.762;2024-01-30T03:00:29;101520.66;;;3.95;100.00
72640;BME280;60683;51.730;8.762;2024-01-30T03:03:14;101519.97;;;3.93;100.00
72640;BME280;60683;51.730;8.762;2024-01-30T03:05:59;101514.72;;;4.01;100.00
72640;BME280;60683;51.730;8.762;2024-01-30T03:08:45;101511.72;;;4.04;100.00
72640;BME280;60683;51.730;8.762;2024-01-30T03:11:32;101507.72;;;4.00;100.00
72640;BME280;60683;51.730;8.762;2024-01-30T03:14:17;101511.31;;;3.91;100.00
72640;BME280;60683;51.730;8.762;2024-01-30T03:17:03;101503.31;;;3.91;100.00
72640;BME280;60683;51.730;8.762;2024-01-30T03:19:48;101501.28;;;3.85;100.00
72640;BME280;60683;51.730;8.762;2024-01-30T03:22:33;101508.06;;;3.79;100.00
72640;BME280;60683;51.730;8.762;2024-01-30T03:25:18;101504.66;;;3.69;100.00
72640;BME280;60683;51.730;8.762;2024-01-30T03:28:05;101499.66;;;3.66;100.00
72640;BME280;60683;51.730;8.762;2024-01-30T03:30:50;101504.47;;;3.62;100.00
72640;BME280;60683;51.730;8.762;2024-01-30T03:33:36;101501.91;;;3.53;100.00
72640;BME280;60683;51.730;8.762;2024-01-30T03:36:21;101503.03;;;3.50;100.00
72640;BME280;60683;51.730;8.762;2024-01-30T03:39:07;101490.22;;;3.46;100.00
72640;BME280;60683;51.730;8.762;2024-01-30T03:41:52;101490.81;;;3.40;100.00
72640;BME280;60683;51.730;8.762;2024-01-30T03:44:38;101488.94;;;3.32;100.00
72640;BME280;60683;51.730;8.762;2024-01-30T03:47:24;101488.41;;;3.28;100.00
72640;BME280;60683;51.730;8.762;2024-01-30T03:50:09;101493.41;;;3.31;100.00
72640;BME280;60683;51.730;8.762;2024-01-30T03:52:54;101497.44;;;3.18;100.00
72640;BME280;60683;51.730;8.762;2024-01-30T03:55:40;101491.75;;;3.30;100.00
72640;BME280;60683;51.730;8.762;2024-01-30T03:58:26;101485.13;;;3.52;100.00
72640;BME280;60683;51.730;8.762;2024-01-30T04:01:14;101474.78;;;3.49;100.00
72640;BME280;60683;51.730;8.762;2024-01-30T04:03:59;101481.94;;;3.31;100.00
72640;BME280;60683;51.730;8.762;2024-01-30T04:06:44;101476.16;;;3.36;100.00
72640;BME280;60683;51.730;8.762;2024-01-30T04:09:30;101468.41;;;3.42;100.00
72640;BME280;60683;51.730;8.762;2024-01-30T04:12:16;101473.22;;;3.39;100.00
72640;BME280;60683;51.730;8.762;2024-01-30T04:15:01;101472.59;;;3.45;100.00
72640;BME280;60683;51.730;8.762;2024-01-30T04:17:49;101474.03;;;3.39;100.00
72640;BME280;60683;51.730;8.762;2024-01-30T04:20:34;101466.84;;;3.31;100.00
72640;BME280;60683;51.730;8.762;2024-01-30T04:23:19;101469.50;;;3.31;100.00
72640;BME280;60683;51.730;8.762;2024-01-30T04:26:04;101469.03;;;3.36;100.00
72640;BME280;60683;51.730;8.762;2024-01-30T04:28:50;101469.88;;;3.37;100.00
72640;BME280;60683;51.730;8.762;2024-01-30T04:31:36;101461.44;;;3.41;100.00
72640;BME280;60683;51.730;8.762;2024-01-30T04:34:23;101459.00;;;3.48;100.00
72640;BME280;60683;51.730;8.762;2024-01-30T04:37:08;101466.59;;;3.43;100.00
72640;BME280;60683;51.730;8.762;2024-01-30T04:39:54;101468.50;;;3.32;100.00
72640;BME280;60683;51.730;8.762;2024-01-30T04:42:39;101472.16;;;3.31;100.00
72640;BME280;60683;51.730;8.762;2024-01-30T04:45:25;101473.28;;;3.29;100.00
72640;BME280;60683;51.730;8.762;2024-01-30T04:48:10;101473.66;;;3.34;100.00
72640;BME280;60683;51.730;8.762;2024-01-30T04:50:57;101466.97;;;3.30;100.00
72640;BME280;60683;51.730;8.762;2024-01-30T04:53:42;101473.06;;;3.22;100.00
72640;BME280;60683;51.730;8.762;2024-01-30T04:56:27;101469.19;;;3.17;100.00
72640;BME280;60683;51.730;8.762;2024-01-30T04:59:12;101472.00;;;3.15;100.00
72640;BME280;60683;51.730;8.762;2024-01-30T05:01:58;101469.97;;;3.09;100.00
72640;BME280;60683;51.730;8.762;2024-01-30T05:04:43;101468.84;;;3.12;100.00
72640;BME280;60683;51.730;8.762;2024-01-30T05:07:30;101474.03;;;3.39;100.00
72640;BME280;60683;51.730;8.762;2024-01-30T05:10:15;101467.28;;;3.27;100.00
72640;BME280;60683;51.730;8.762;2024-01-30T05:13:01;101476.94;;;3.28;100.00
72640;BME280;60683;51.730;8.762;2024-01-30T05:15:46;101476.09;;;3.27;100.00
72640;BME280;60683;51.730;8.762;2024-01-30T05:18:32;101479.34;;;3.39;100.00
72640;BME280;60683;51.730;8.762;2024-01-30T05:21:17;101471.75;;;3.44;100.00
72640;BME280;60683;51.730;8.762;2024-01-30T05:24:04;101476.16;;;3.53;100.00
72640;BME280;60683;51.730;8.762;2024-01-30T05:26:49;101473.50;;;3.53;100.00
72640;BME280;60683;51.730;8.762;2024-01-30T05:29:35;101475.41;;;3.43;100.00
72640;BME280;60683;51.730;8.762;2024-01-30T05:32:20;101472.91;;;3.42;100.00
72640;BME280;60683;51.730;8.762;2024-01-30T05:35:06;101466.22;;;3.38;100.00
72640;BME280;60683;51.730;8.762;2024-01-30T05:37:51;101469.50;;;3.31;100.00
72640;BME280;60683;51.730;8.762;2024-01-30T05:40:38;101470.47;;;3.30;100.00
72640;BME280;60683;51.730;8.762;2024-01-30T05:43:23;101463.19;;;3.32;100.00
72640;BME280;60683;51.730;8.762;2024-01-30T05:46:08;101458.09;;;3.39;100.00
72640;BME280;60683;51.730;8.762;2024-01-30T05:48:53;101463.25;;;3.23;100.00
72640;BME280;60683;51.730;8.762;2024-01-30T05:51:39;101460.31;;;3.26;100.00
72640;BME280;60683;51.730;8.762;2024-01-30T05:54:24;101464.31;;;3.30;100.00
72640;BME280;60683;51.730;8.762;2024-01-30T05:57:11;101467.38;;;3.35;100.00
72640;BME280;60683;51.730;8.762;2024-01-30T05:59:56;101459.75;;;3.40;100.00
72640;BME280;60683;51.730;8.762;2024-01-30T06:02:41;101460.53;;;3.32;100.00
72640;BME280;60683;51.730;8.762;2024-01-30T06:05:27;101452.84;;;3.47;100.00
72640;BME280;60683;51.730;8.762;2024-01-30T06:08:12;101459.28;;;3.62;100.00
72640;BME280;60683;51.730;8.762;2024-01-30T06:10:57;101453.91;;;3.54;100.00
72640;BME280;60683;51.730;8.762;2024-01-30T06:13:44;101461.25;;;3.60;100.00
72640;BME280;60683;51.730;8.762;2024-01-30T06:16:31;101452.69;;;3.75;100.00
72640;BME280;60683;51.730;8.762;2024-01-30T06:19:16;101456.84;;;3.77;100.00
72640;BME280;60683;51.730;8.762;2024-01-30T06:22:01;101457.31;;;3.98;100.00
72640;BME280;60683;51.730;8.762;2024-01-30T06:24:47;101455.81;;;3.96;100.00
72640;BME280;60683;51.730;8.762;2024-01-30T06:27:33;101456.84;;;3.77;100.00
72640;BME280;60683;51.730;8.762;2024-01-30T06:30:20;101446.63;;;3.90;100.00
72640;BME280;60683;51.730;8.762;2024-01-30T06:33:05;101449.38;;;4.07;100.00
72640;BME280;60683;51.730;8.762;2024-01-30T06:35:50;101447.63;;;3.89;100.00
72640;BME280;60683;51.730;8.762;2024-01-30T06:38:35;101444.31;;;3.95;100.00
72640;BME280;60683;51.730;8.762;2024-01-30T06:41:20;101443.03;;;3.99;100.00
72640;BME280;60683;51.730;8.762;2024-01-30T06:44:05;101443.34;;;3.71;100.00
72640;BME280;60683;51.730;8.762;2024-01-30T06:46:53;101446.72;;;3.81;100.00
72640;BME280;60683;51.730;8.762;2024-01-30T06:49:38;101445.78;;;3.64;100.00
72640;BME280;60683;51.730;8.762;2024-01-30T06:52:26;101446.47;;;3.66;100.00
72640;BME280;60683;51.730;8.762;2024-01-30T06:55:11;101439.13;;;3.86;100.00
72640;BME280;60683;51.730;8.762;2024-01-30T06:57:56;101440.47;;;3.90;100.00
72640;BME280;60683;51.730;8.762;2024-01-30T07:00:41;101443.44;;;3.87;100.00
72640;BME280;60683;51.730;8.762;2024-01-30T07:03:28;101441.56;;;3.79;100.00
72640;BME280;60683;51.730;8.762;2024-01-30T07:06:13;101441.63;;;3.87;100.00
72640;BME280;60683;51.730;8.762;2024-01-30T07:08:59;101440.84;;;3.95;100.00
72640;BME280;60683;51.730;8.762;2024-01-30T07:11:44;101443.50;;;3.95;100.00
72640;BME280;60683;51.730;8.762;2024-01-30T07:14:30;101438.91;;;4.05;100.00
72640;BME280;60683;51.730;8.762;2024-01-30T07:17:14;101436.50;;;3.94;100.00
72640;BME280;60683;51.730;8.762;2024-01-30T07:20:01;101442.13;;;3.91;100.00
72640;BME280;60683;51.730;8.762;2024-01-30T07:22:47;101439.72;;;4.06;100.00
72640;BME280;60683;51.730;8.762;2024-01-30T07:25:32;101439.38;;;4.01;100.00
72640;BME280;60683;51.730;8.762;2024-01-30T07:28:20;101441.75;;;4.12;100.00
72640;BME280;60683;51.730;8.762;2024-01-30T07:31:05;101438.94;;;4.13;100.00
72640;BME280;60683;51.730;8.762;2024-01-30T07:33:51;101435.56;;;4.03;100.00
72640;BME280;60683;51.730;8.762;2024-01-30T07:36:38;101434.25;;;4.07;100.00
72640;BME280;60683;51.730;8.762;2024-01-30T07:39:23;101435.41;;;4.05;100.00
72640;BME280;60683;51.730;8.762;2024-01-30T07:42:08;101434.91;;;4.09;100.00
72640;BME280;60683;51.730;8.762;2024-01-30T07:44:53;101438.41;;;4.10;100.00
72640;BME280;60683;51.730;8.762;2024-01-30T07:47:39;101431.94;;;4.20;100.00
72640;BME280;60683;51.730;8.762;2024-01-30T07:50:24;101432.31;;;4.25;100.00
72640;BME280;60683;51.730;8.762;2024-01-30T07:53:10;101437.78;;;4.24;100.00
72640;BME280;60683;51.730;8.762;2024-01-30T07:55:55;101444.50;;;4.36;100.00
72640;BME280;60683;51.730;8.762;2024-01-30T07:58:40;101435.50;;;4.37;100.00
72640;BME280;60683;51.730;8.762;2024-01-30T08:01:26;101441.38;;;4.49;100.00
72640;BME280;60683;51.730;8.762;2024-01-30T08:04:12;101446.06;;;4.55;100.00
72640;BME280;60683;51.730;8.762;2024-01-30T08:06:57;101451.09;;;4.66;100.00
72640;BME280;60683;51.730;8.762;2024-01-30T08:09:43;101454.22;;;4.70;100.00
72640;BME280;60683;51.730;8.762;2024-01-30T08:12:29;101458.25;;;4.82;100.00
72640;BME280;60683;51.730;8.762;2024-01-30T08:15:14;101456.44;;;4.90;100.00
72640;BME280;60683;51.730;8.762;2024-01-30T08:18:00;101449.47;;;4.97;100.00
72640;BME280;60683;51.730;8.762;2024-01-30T08:20:46;101448.63;;;4.89;100.00
72640;BME280;60683;51.730;8.762;2024-01-30T08:23:31;101435.47;;;4.87;100.00
72640;BME280;60683;51.730;8.762;2024-01-30T08:26:18;101443.47;;;5.04;100.00
72640;BME280;60683;51.730;8.762;2024-01-30T08:29:03;101448.47;;;5.39;100.00
72640;BME280;60683;51.730;8.762;2024-01-30T08:31:49;101444.47;;;5.51;100.00
72640;BME280;60683;51.730;8.762;2024-01-30T08:34:34;101439.78;;;5.70;100.00
72640;BME280;60683;51.730;8.762;2024-01-30T08:37:19;101432.25;;;5.89;100.00
72640;BME280;60683;51.730;8.762;2024-01-30T08:40:05;101434.06;;;5.97;100.00
72640;BME280;60683;51.730;8.762;2024-01-30T08:42:54;101430.19;;;6.08;100.00
72640;BME280;60683;51.730;8.762;2024-01-30T08:45:39;101434.50;;;6.17;100.00
72640;BME280;60683;51.730;8.762;2024-01-30T08:48:25;101429.94;;;6.25;100.00
72640;BME280;60683;51.730;8.762;2024-01-30T08:51:10;101433.06;;;6.37;100.00
72640;BME280;60683;51.730;8.762;2024-01-30T08:53:55;101435.13;;;6.58;100.00
72640;BME280;60683;51.730;8.762;2024-01-30T08:56:40;101444.41;;;6.70;100.00
72640;BME280;60683;51.730;8.762;2024-01-30T08:59:27;101442.22;;;6.74;100.00
72640;BME280;60683;51.730;8.762;2024-01-30T09:02:13;101449.59;;;6.72;100.00
72640;BME280;60683;51.730;8.762;2024-01-30T09:05:00;101454.09;;;6.71;100.00
72640;BME280;60683;51.730;8.762;2024-01-30T09:07:45;101455.75;;;6.72;100.00
72640;BME280;60683;51.730;8.762;2024-01-30T09:10:30;101464.88;;;6.78;100.00
72640;BME280;60683;51.730;8.762;2024-01-30T09:13:16;101461.69;;;6.82;100.00
72640;BME280;60683;51.730;8.762;2024-01-30T09:16:03;101466.09;;;6.98;100.00
72640;BME280;60683;51.730;8.762;2024-01-30T09:18:49;101462.06;;;7.02;100.00
72640;BME280;60683;51.730;8.762;2024-01-30T09:21:34;101460.16;;;7.11;100.00
72640;BME280;60683;51.730;8.762;2024-01-30T09:24:20;101457.72;;;7.24;100.00
72640;BME280;60683;51.730;8.762;2024-01-30T09:27:05;101460.63;;;7.37;100.00
72640;BME280;60683;51.730;8.762;2024-01-30T09:29:50;101457.09;;;7.59;100.00
72640;BME280;60683;51.730;8.762;2024-01-30T09:32:39;101460.41;;;7.61;100.00
72640;BME280;60683;51.730;8.762;2024-01-30T09:35:24;101459.22;;;7.64;100.00
72640;BME280;60683;51.730;8.762;2024-01-30T09:38:10;101456.34;;;7.80;100.00
72640;BME280;60683;51.730;8.762;2024-01-30T09:40:55;101454.63;;;8.02;100.00
72640;BME280;60683;51.730;8.762;2024-01-30T09:43:41;101451.56;;;8.05;100.00
72640;BME280;60683;51.730;8.762;2024-01-30T09:46:32;101457.31;;;8.17;100.00
72640;BME280;60683;51.730;8.762;2024-01-30T09:49:20;101457.31;;;8.32;100.00
72640;BME280;60683;51.730;8.762;2024-01-30T09:52:06;101457.22;;;8.40;100.00
72640;BME280;60683;51.730;8.762;2024-01-30T09:54:53;101452.56;;;8.48;100.00
72640;BME280;60683;51.730;8.762;2024-01-30T09:57:39;101445.63;;;8.69;100.00
72640;BME280;60683;51.730;8.762;2024-01-30T10:00:24;101447.34;;;8.76;100.00
72640;BME280;60683;51.730;8.762;2024-01-30T10:03:11;101447.47;;;8.89;100.00
72640;BME280;60683;51.730;8.762;2024-01-30T10:06:01;101448.88;;;9.07;100.00
72640;BME280;60683;51.730;8.762;2024-01-30T10:08:46;101444.44;;;9.14;100.00
72640;BME280;60683;51.730;8.762;2024-01-30T10:11:32;101451.19;;;9.31;99.05
72640;BME280;60683;51.730;8.762;2024-01-30T10:14:17;101444.44;;;9.42;97.52
72640;BME280;60683;51.730;8.762;2024-01-30T10:17:03;101443.47;;;9.49;96.37
72640;BME280;60683;51.730;8.762;2024-01-30T10:19:49;101447.25;;;9.55;95.58
72640;BME280;60683;51.730;8.762;2024-01-30T10:22:37;101439.00;;;9.56;95.85
72640;BME280;60683;51.730;8.762;2024-01-30T10:25:23;101452.22;;;9.58;95.85
72640;BME280;60683;51.730;8.762;2024-01-30T10:28:08;101439.88;;;9.63;94.78
72640;BME280;60683;51.730;8.762;2024-01-30T10:30:57;101436.41;;;9.70;93.88
72640;BME280;60683;51.730;8.762;2024-01-30T10:33:44;101439.50;;;9.67;94.44
72640;BME280;60683;51.730;8.762;2024-01-30T10:36:30;101434.56;;;9.70;94.18
72640;BME280;60683;51.730;8.762;2024-01-30T10:39:21;101440.75;;;9.71;93.93
72640;BME280;60683;51.730;8.762;2024-01-30T10:42:11;101445.78;;;9.80;92.97
72640;BME280;60683;51.730;8.762;2024-01-30T10:45:04;101451.34;;;9.79;92.52
72640;BME280;60683;51.730;8.762;2024-01-30T10:47:53;101443.69;;;9.76;93.24
72640;BME280;60683;51.730;8.762;2024-01-30T10:50:40;101450.78;;;9.83;93.26
72640;BME280;60683;51.730;8.762;2024-01-30T10:53:27;101448.28;;;9.88;93.02
72640;BME280;60683;51.730;8.762;2024-01-30T10:56:15;101447.91;;;9.91;93.29
72640;BME280;60683;51.730;8.762;2024-01-30T10:59:02;101453.75;;;10.02;93.44
72640;BME280;60683;51.730;8.762;2024-01-30T11:01:48;101445.59;;;10.16;92.46
72640;BME280;60683;51.730;8.762;2024-01-30T11:04:37;101441.13;;;10.30;92.04
72640;BME280;60683;51.730;8.762;2024-01-30T11:07:24;101430.03;;;10.53;89.98
72640;BME280;60683;51.730;8.762;2024-01-30T11:10:11;101420.97;;;10.60;89.31
72640;BME280;60683;51.730;8.762;2024-01-30T11:13:09;101424.50;;;10.61;89.73
72640;BME280;60683;51.730;8.762;2024-01-30T11:15:55;101413.56;;;10.76;88.90
72640;BME280;60683;51.730;8.762;2024-01-30T11:18:50;101418.97;;;10.95;86.72
72640;BME280;60683;51.730;8.762;2024-01-30T11:21:41;101411.53;;;11.04;86.76
72640;BME280;60683;51.730;8.762;2024-01-30T11:24:27;101408.44;;;11.14;86.33
72640;BME280;60683;51.730;8.762;2024-01-30T11:27:12;101415.69;;;11.20;86.27
72640;BME280;60683;51.730;8.762;2024-01-30T11:30:02;101417.16;;;11.29;85.74
72640;BME280;60683;51.730;8.762;2024-01-30T11:32:58;101413.22;;;11.38;85.94
72640;BME280;60683;51.730;8.762;2024-01-30T11:35:44;101411.75;;;11.55;85.12
72640;BME280;60683;51.730;8.762;2024-01-30T11:38:30;101411.53;;;11.70;84.64
72640;BME280;60683;51.730;8.762;2024-01-30T11:41:15;101401.81;;;11.82;82.31
72640;BME280;60683;51.730;8.762;2024-01-30T11:44:03;101405.94;;;11.91;82.93
72640;BME280;60683;51.730;8.762;2024-01-30T11:46:50;101420.19;;;12.05;81.54
72640;BME280;60683;51.730;8.762;2024-01-30T11:49:36;101420.53;;;12.29;80.63
72640;BME280;60683;51.730;8.762;2024-01-30T11:52:22;101419.75;;;12.59;79.69
72640;BME280;60683;51.730;8.762;2024-01-30T11:55:07;101415.31;;;12.72;77.57
72640;BME280;60683;51.730;8.762;2024-01-30T11:57:55;101417.38;;;12.76;77.54
72640;BME280;60683;51.730;8.762;2024-01-30T12:00:39;101415.69;;;12.82;76.32
72640;BME280;60683;51.730;8.762;2024-01-30T12:03:27;101400.50;;;12.87;76.49
72640;BME280;60683;51.730;8.762;2024-01-30T12:06:12;101405.91;;;13.19;76.19
72640;BME280;60683;51.730;8.762;2024-01-30T12:09:01;101407.63;;;13.38;74.39
72640;BME280;60683;51.730;8.762;2024-01-30T12:11:48;101412.97;;;13.45;73.99
72640;BME280;60683;51.730;8.762;2024-01-30T12:14:34;101401.84;;;13.53;73.00
72640;BME280;60683;51.730;8.762;2024-01-30T12:17:24;101402.22;;;13.38;75.05
72640;BME280;60683;51.730;8.762;2024-01-30T12:20:13;101401.03;;;13.52;73.54
72640;BME280;60683;51.730;8.762;2024-01-30T12:22:58;101397.38;;;13.47;74.49
72640;BME280;60683;51.730;8.762;2024-01-30T12:25:43;101402.00;;;13.40;74.36
72640;BME280;60683;51.730;8.762;2024-01-30T12:28:29;101392.63;;;13.42;74.19
72640;BME280;60683;51.730;8.762;2024-01-30T12:31:14;101405.34;;;13.35;74.52
72640;BME280;60683;51.730;8.762;2024-01-30T12:34:00;101395.81;;;13.33;75.02
72640;BME280;60683;51.730;8.762;2024-01-30T12:36:48;101399.56;;;13.32;75.06
72640;BME280;60683;51.730;8.762;2024-01-30T12:39:34;101398.34;;;13.28;76.00
72640;BME280;60683;51.730;8.762;2024-01-30T12:42:20;101410.69;;;13.17;75.89
72640;BME280;60683;51.730;8.762;2024-01-30T12:45:07;101414.06;;;13.06;77.39
72640;BME280;60683;51.730;8.762;2024-01-30T12:47:53;101425.50;;;13.01;77.29
72640;BME280;60683;51.730;8.762;2024-01-30T12:50:38;101421.06;;;12.88;78.30
72640;BME280;60683;51.730;8.762;2024-01-30T12:53:25;101433.50;;;12.89;79.48
72640;BME280;60683;51.730;8.762;2024-01-30T12:56:10;101427.31;;;12.82;78.40
72640;BME280;60683;51.730;8.762;2024-01-30T12:58:56;101427.81;;;12.66;80.06
72640;BME280;60683;51.730;8.762;2024-01-30T13:01:41;101420.75;;;12.65;80.26
72640;BME280;60683;51.730;8.762;2024-01-30T13:04:27;101423.66;;;12.64;80.82
72640;BME280;60683;51.730;8.762;2024-01-30T13:07:12;101424.06;;;12.67;79.82
72640;BME280;60683;51.730;8.762;2024-01-30T13:09:59;101423.47;;;12.65;79.77
72640;BME280;60683;51.730;8.762;2024-01-30T13:12:46;101434.44;;;12.70;79.97
72640;BME280;60683;51.730;8.762;2024-01-30T13:15:31;101436.69;;;12.73;80.20
72640;BME280;60683;51.730;8.762;2024-01-30T13:18:17;101435.69;;;12.68;80.18
72640;BME280;60683;51.730;8.762;2024-01-30T13:21:02;101444.59;;;12.68;79.29
72640;BME280;60683;51.730;8.762;2024-01-30T13:23:47;101437.97;;;12.64;79.25
72640;BME280;60683;51.730;8.762;2024-01-30T13:26:38;101435.53;;;12.56;79.41
72640;BME280;60683;51.730;8.762;2024-01-30T13:29:24;101443.19;;;12.59;79.74
72640;BME280;60683;51.730;8.762;2024-01-30T13:32:09;101437.81;;;12.59;80.01
72640;BME280;60683;51.730;8.762;2024-01-30T13:34:55;101430.53;;;12.59;80.34
72640;BME280;60683;51.730;8.762;2024-01-30T13:37:40;101439.88;;;12.57;80.33
72640;BME280;60683;51.730;8.762;2024-01-30T13:40:26;101436.38;;;12.50;80.81
72640;BME280;60683;51.730;8.762;2024-01-30T13:43:13;101432.50;;;12.46;81.50
72640;BME280;60683;51.730;8.762;2024-01-30T13:46:00;101434.38;;;12.39;81.61
72640;BME280;60683;51.730;8.762;2024-01-30T13:48:45;101439.59;;;12.34;82.62
72640;BME280;60683;51.730;8.762;2024-01-30T13:51:31;101428.59;;;12.35;82.04
72640;BME280;60683;51.730;8.762;2024-01-30T13:54:16;101433.38;;;12.33;81.66
72640;BME280;60683;51.730;8.762;2024-01-30T13:57:01;101431.31;;;12.29;82.46
72640;BME280;60683;51.730;8.762;2024-01-30T13:59:49;101435.03;;;12.27;82.54
72640;BME280;60683;51.730;8.762;2024-01-30T14:02:34;101435.47;;;12.18;82.94
72640;BME280;60683;51.730;8.762;2024-01-30T14:05:20;101433.00;;;12.16;83.32
72640;BME280;60683;51.730;8.762;2024-01-30T14:08:05;101429.91;;;12.06;84.03
72640;BME280;60683;51.730;8.762;2024-01-30T14:10:52;101428.06;;;12.00;85.15
72640;BME280;60683;51.730;8.762;2024-01-30T14:13:37;101424.13;;;12.03;84.49
72640;BME280;60683;51.730;8.762;2024-01-30T14:16:24;101426.41;;;12.06;85.17
72640;BME280;60683;51.730;8.762;2024-01-30T14:19:09;101435.09;;;12.01;86.12
72640;BME280;60683;51.730;8.762;2024-01-30T14:21:54;101429.09;;;11.99;86.68
72640;BME280;60683;51.730;8.762;2024-01-30T14:24:39;101436.19;;;11.93;87.43
72640;BME280;60683;51.730;8.762;2024-01-30T14:27:25;101444.06;;;11.88;87.82